createdAt,value
2023-01-15T00:00:44.000Z,69.6429
2023-01-15T00:01:44.067Z,69.7143
2023-01-15T00:02:44.134Z,69.7143
2023-01-15T00:03:44.135Z,69.6429
2023-01-15T00:04:44.148Z,69.5714
2023-01-15T00:05:44.182Z,69.5714
2023-01-15T00:06:44.221Z,69.5
2023-01-15T00:07:44.262Z,69.5
2023-01-15T00:08:44.286Z,69.5
2023-01-15T00:09:44.319Z,69.4286
2023-01-15T00:10:44.343Z,69.4286
2023-01-15T00:11:44.378Z,69.5
2023-01-15T00:12:44.448Z,69.5
2023-01-15T00:13:44.454Z,69.5
2023-01-15T00:14:44.491Z,69.4286
2023-01-15T00:15:44.556Z,69.2857
2023-01-15T00:16:44.602Z,69.2857
2023-01-15T00:17:44.614Z,69.3571
2023-01-15T00:18:44.647Z,69.3571
2023-01-15T00:19:44.686Z,69.4286
2023-01-15T00:20:44.727Z,69.3571
2023-01-15T00:21:44.765Z,69.3571
2023-01-15T00:22:44.845Z,69.2857
2023-01-15T00:23:44.840Z,69.2857
2023-01-15T00:24:44.873Z,69.2857
2023-01-15T00:25:44.905Z,69.2857
2023-01-15T00:26:44.932Z,69.2143
2023-01-15T00:27:44.978Z,69.2143
2023-01-15T00:28:45.005Z,69.1429
2023-01-15T00:29:45.068Z,69.1429
2023-01-15T00:30:45.090Z,69.2143
2023-01-15T00:31:45.124Z,69.2143
2023-01-15T00:32:45.155Z,69.1429
2023-01-15T00:33:45.208Z,69.1429
2023-01-15T00:34:45.231Z,69.2143
2023-01-15T00:35:45.276Z,69.2143
2023-01-15T00:36:45.308Z,69.2143
2023-01-15T00:37:45.352Z,69.0714
2023-01-15T00:38:45.397Z,69.0714
2023-01-15T00:39:45.425Z,69.0714
2023-01-15T00:40:45.465Z,69
2023-01-15T00:41:45.500Z,69
2023-01-15T00:42:52.947Z,69
2023-01-15T00:43:45.592Z,68.9286
2023-01-15T00:44:45.612Z,68.9286
2023-01-15T00:45:45.652Z,69
2023-01-15T00:46:45.757Z,69
2023-01-15T00:47:45.723Z,69
2023-01-15T00:48:45.780Z,69.0714
2023-01-15T00:49:45.800Z,69
2023-01-15T00:50:45.828Z,69
2023-01-15T00:51:45.867Z,69
2023-01-15T00:52:45.905Z,69
2023-01-15T00:53:45.967Z,69
2023-01-15T00:54:45.977Z,69
2023-01-15T00:55:46.021Z,69.0714
2023-01-15T00:56:46.056Z,69.1429
2023-01-15T00:57:46.105Z,69.2143
2023-01-15T00:58:46.133Z,69.2143
2023-01-15T00:59:46.180Z,69.1429
2023-01-15T01:00:46.239Z,69.2857
2023-01-15T01:01:46.413Z,69.2857
2023-01-15T01:02:46.366Z,69.2857
2023-01-15T01:03:46.326Z,69.2857
2023-01-15T01:04:46.372Z,69.2857
2023-01-15T01:05:46.391Z,69.2857
2023-01-15T01:06:46.443Z,69.2857
2023-01-15T01:07:46.470Z,69.2857
2023-01-15T01:08:46.510Z,69.2143
2023-01-15T01:09:46.573Z,69.2143
2023-01-15T01:10:46.581Z,69.2143
2023-01-15T01:11:46.620Z,69.1429
2023-01-15T01:12:46.653Z,69.0714
2023-01-15T01:13:46.688Z,69.0714
2023-01-15T01:14:46.724Z,69.0714
2023-01-15T01:15:46.764Z,69.0714
2023-01-15T01:16:46.795Z,69
2023-01-15T01:17:46.832Z,68.9286
2023-01-15T01:18:46.862Z,68.8571
2023-01-15T01:19:46.904Z,68.7857
2023-01-15T01:20:46.959Z,68.8571
2023-01-15T01:21:46.991Z,68.8571
2023-01-15T01:22:47.003Z,68.8571
2023-01-15T01:23:47.061Z,68.8571
2023-01-15T01:24:47.084Z,68.7857
2023-01-15T01:25:47.129Z,68.8571
2023-01-15T01:26:47.157Z,68.8571
2023-01-15T01:27:47.192Z,68.9286
2023-01-15T01:28:47.226Z,68.8571
2023-01-15T01:29:47.269Z,68.7857
2023-01-15T01:30:47.308Z,68.7857
2023-01-15T01:31:47.413Z,68.7143
2023-01-15T01:32:47.397Z,68.7143
2023-01-15T01:33:47.425Z,68.6429
2023-01-15T01:34:47.478Z,68.6429
2023-01-15T01:35:47.500Z,68.5714
2023-01-15T01:36:47.533Z,68.5
2023-01-15T01:37:47.574Z,68.5714
2023-01-15T01:38:47.603Z,68.5714
2023-01-15T01:39:47.641Z,68.5714
2023-01-15T01:40:47.673Z,68.5
2023-01-15T01:41:47.742Z,68.5
2023-01-15T01:42:47.747Z,68.5714
2023-01-15T01:43:47.781Z,68.5714
2023-01-15T01:44:47.812Z,68.7143
2023-01-15T01:45:47.936Z,68.7857
2023-01-15T01:46:47.905Z,68.8571
2023-01-15T01:47:47.942Z,68.8571
2023-01-15T01:48:47.978Z,68.9286
2023-01-15T01:49:47.998Z,69
2023-01-15T01:50:48.030Z,69
2023-01-15T01:51:48.420Z,69.1429
2023-01-15T01:52:48.115Z,69.1429
2023-01-15T01:53:48.137Z,69.1429
2023-01-15T01:54:48.163Z,69.1429
2023-01-15T01:55:48.202Z,69.2857
2023-01-15T01:56:48.229Z,69.3571
2023-01-15T01:57:48.274Z,69.4286
2023-01-15T01:58:48.303Z,69.5
2023-01-15T01:59:48.357Z,69.5714
2023-01-15T02:00:48.426Z,69.7143
2023-01-15T02:01:48.555Z,69.7857
2023-01-15T02:02:48.530Z,69.9286
2023-01-15T02:03:48.479Z,70
2023-01-15T02:04:48.518Z,70.0714
2023-01-15T02:05:48.554Z,70.1429
2023-01-15T02:06:48.596Z,70.2143
2023-01-15T02:07:48.653Z,70.2857
2023-01-15T02:08:48.659Z,70.4286
2023-01-15T02:09:48.700Z,70.5714
2023-01-15T02:10:48.722Z,70.7857
2023-01-15T02:11:48.768Z,71.0714
2023-01-15T02:12:48.817Z,71.3571
2023-01-15T02:13:48.840Z,71.5714
2023-01-15T02:14:48.892Z,71.7143
2023-01-15T02:15:48.899Z,71.8571
2023-01-15T02:16:48.943Z,72
2023-01-15T02:17:48.998Z,72.1429
2023-01-15T02:18:49.014Z,72.2857
2023-01-15T02:19:49.040Z,72.3571
2023-01-15T02:20:49.090Z,72.4286
2023-01-15T02:21:49.118Z,72.5714
2023-01-15T02:22:49.182Z,72.6429
2023-01-15T02:23:49.196Z,72.6429
2023-01-15T02:24:49.236Z,72.7143
2023-01-15T02:25:49.256Z,72.8571
2023-01-15T02:26:49.301Z,72.9286
2023-01-15T02:27:49.382Z,73
2023-01-15T02:28:49.375Z,73.0714
2023-01-15T02:29:49.419Z,73.1429
2023-01-15T02:30:49.437Z,73.2143
2023-01-15T02:31:49.540Z,73.2857
2023-01-15T02:32:49.524Z,73.2857
2023-01-15T02:33:49.558Z,73.3571
2023-01-15T02:34:49.590Z,73.4286
2023-01-15T02:35:49.626Z,73.5714
2023-01-15T02:36:49.666Z,73.5714
2023-01-15T02:37:49.710Z,73.7143
2023-01-15T02:38:49.756Z,73.7143
2023-01-15T02:39:49.782Z,73.7857
2023-01-15T02:40:49.810Z,73.7857
2023-01-15T02:41:49.841Z,73.7857
2023-01-15T02:42:49.882Z,73.7857
2023-01-15T02:43:49.942Z,73.7857
2023-01-15T02:44:50.006Z,73.8571
2023-01-15T02:45:50.002Z,73.8571
2023-01-15T02:46:50.031Z,73.8571
2023-01-15T02:47:50.072Z,73.8571
2023-01-15T02:48:50.116Z,73.9286
2023-01-15T02:49:50.161Z,73.9286
2023-01-15T02:50:50.180Z,73.9286
2023-01-15T02:51:50.222Z,73.9286
2023-01-15T02:52:50.246Z,73.9286
2023-01-15T02:53:50.284Z,73.9286
2023-01-15T02:54:50.347Z,73.9286
2023-01-15T02:55:50.345Z,74
2023-01-15T02:56:50.386Z,74
2023-01-15T02:57:50.428Z,74
2023-01-15T02:58:50.457Z,74.0714
2023-01-15T02:59:50.526Z,74.1429
2023-01-15T03:00:50.582Z,74.1429
2023-01-15T03:01:50.705Z,74.2143
2023-01-15T03:02:50.632Z,74.2143
2023-01-15T03:03:50.634Z,74.2857
2023-01-15T03:04:50.703Z,74.3571
2023-01-15T03:05:50.702Z,74.3571
2023-01-15T03:06:50.738Z,74.5
2023-01-15T03:07:50.789Z,74.5714
2023-01-15T03:08:50.808Z,74.6429
2023-01-15T03:09:50.884Z,74.6429
2023-01-15T03:10:50.889Z,74.6429
2023-01-15T03:11:50.920Z,74.6429
2023-01-15T03:12:50.962Z,74.7143
2023-01-15T03:13:50.991Z,74.7143
2023-01-15T03:14:51.067Z,74.7143
2023-01-15T03:15:51.058Z,74.7143
2023-01-15T03:16:51.157Z,74.7143
2023-01-15T03:17:51.136Z,74.7143
2023-01-15T03:18:51.167Z,74.6429
2023-01-15T03:19:51.215Z,74.6429
2023-01-15T03:20:51.234Z,74.5714
2023-01-15T03:21:51.271Z,74.5714
2023-01-15T03:22:51.306Z,74.5
2023-01-15T03:23:51.338Z,74.5
2023-01-15T03:24:51.410Z,74.5
2023-01-15T03:25:51.407Z,74.5
2023-01-15T03:26:51.444Z,74.4286
2023-01-15T03:27:51.459Z,74.4286
2023-01-15T03:28:51.495Z,74.3571
2023-01-15T03:29:51.547Z,74.3571
2023-01-15T03:30:51.635Z,74.3571
2023-01-15T03:31:51.637Z,74.3571
2023-01-15T03:32:51.640Z,74.2857
2023-01-15T03:33:51.682Z,74.2857
2023-01-15T03:34:51.733Z,74.2857
2023-01-15T03:35:51.758Z,74.2857
2023-01-15T03:36:51.805Z,74.2857
2023-01-15T03:37:51.823Z,74.2857
2023-01-15T03:38:51.863Z,74.2143
2023-01-15T03:39:51.925Z,74.2143
2023-01-15T03:40:51.957Z,74.2143
2023-01-15T03:41:51.980Z,74.2143
2023-01-15T03:42:52.014Z,74.2143
2023-01-15T03:43:52.088Z,74.2143
2023-01-15T03:44:52.107Z,74.2143
2023-01-15T03:45:52.208Z,74.2143
2023-01-15T03:46:52.165Z,74.2143
2023-01-15T03:47:52.211Z,74.5714
2023-01-15T03:48:52.257Z,74.7143
2023-01-15T03:49:52.317Z,74.8571
2023-01-15T03:50:52.297Z,74.6429
2023-01-15T03:51:52.340Z,74.2143
2023-01-15T03:52:52.392Z,73.8571
2023-01-15T03:53:52.433Z,73.4286
2023-01-15T03:54:52.491Z,73.1429
2023-01-15T03:55:52.497Z,72.5714
2023-01-15T03:56:52.527Z,72.3571
2023-01-15T03:57:52.565Z,72.2857
2023-01-15T03:58:52.626Z,71.8571
2023-01-15T03:59:52.663Z,71.5714
2023-01-15T04:00:52.679Z,71.1429
2023-01-15T04:01:52.889Z,70.5
2023-01-15T04:02:52.762Z,70
2023-01-15T04:03:52.795Z,69.7857
2023-01-15T04:04:52.853Z,69.0714
2023-01-15T04:05:52.862Z,68.4286
2023-01-15T04:06:52.882Z,67.9286
2023-01-15T04:07:52.932Z,67.5714
2023-01-15T04:08:52.970Z,67.3571
2023-01-15T04:09:53.019Z,67.1429
2023-01-15T04:10:53.029Z,66.9286
2023-01-15T04:11:53.096Z,66.6429
2023-01-15T04:12:53.097Z,66.6429
2023-01-15T04:13:53.148Z,66.5714
2023-01-15T04:14:53.175Z,66.4286
2023-01-15T04:15:53.276Z,66.5
2023-01-15T04:16:53.252Z,66.5714
2023-01-15T04:17:53.277Z,66.5714
2023-01-15T04:18:53.307Z,66.5
2023-01-15T04:19:53.346Z,66.3571
2023-01-15T04:20:53.378Z,66.2143
2023-01-15T04:21:53.420Z,66.0714
2023-01-15T04:22:53.445Z,66.2143
2023-01-15T04:23:53.515Z,66.3571
2023-01-15T04:24:53.532Z,66.6429
2023-01-15T04:25:53.542Z,66.7143
2023-01-15T04:26:53.590Z,66.7857
2023-01-15T04:27:53.612Z,66.7857
2023-01-15T04:28:53.652Z,66.8571
2023-01-15T04:29:53.691Z,66.7857
2023-01-15T04:30:53.808Z,67
2023-01-15T04:31:53.781Z,67.0714
2023-01-15T04:32:53.793Z,66.8571
2023-01-15T04:33:53.833Z,66.5714
2023-01-15T04:34:53.865Z,65.8571
2023-01-15T04:35:53.901Z,65.8571
2023-01-15T04:36:53.956Z,65.3571
2023-01-15T04:37:53.976Z,65
2023-01-15T04:38:54.013Z,64.7143
2023-01-15T04:39:54.044Z,64.2857
2023-01-15T04:40:54.074Z,64.1429
2023-01-15T04:41:54.113Z,64.0714
2023-01-15T04:42:54.139Z,63.7857
2023-01-15T04:43:54.224Z,63.7857
2023-01-15T04:44:54.232Z,63.7143
2023-01-15T04:45:54.280Z,63.5714
2023-01-15T04:46:54.297Z,63.5714
2023-01-15T04:47:54.335Z,63.5714
2023-01-15T04:48:54.384Z,63.6429
2023-01-15T04:49:54.411Z,63.6429
2023-01-15T04:50:54.441Z,63.9286
2023-01-15T04:51:54.478Z,63.8571
2023-01-15T04:52:54.512Z,63.5
2023-01-15T04:53:54.548Z,63.5
2023-01-15T04:54:54.597Z,63.7857
2023-01-15T04:55:54.618Z,64
2023-01-15T04:56:54.658Z,64
2023-01-15T04:57:54.701Z,63.7143
2023-01-15T04:58:54.737Z,63.5714
2023-01-15T04:59:54.814Z,63.5714
2023-01-15T05:00:54.814Z,63.7143
2023-01-15T05:02:03.931Z,63.8571
2023-01-15T05:02:54.874Z,63.8571
2023-01-15T05:03:54.914Z,63.7143
2023-01-15T05:04:54.941Z,63.7857
2023-01-15T05:05:54.994Z,64
2023-01-15T05:06:55.038Z,63.7857
2023-01-15T05:07:55.055Z,63.8571
2023-01-15T05:08:55.097Z,64
2023-01-15T05:09:55.156Z,64.0714
2023-01-15T05:10:55.154Z,64.1429
2023-01-15T05:11:55.218Z,64.2143
2023-01-15T05:12:55.241Z,64.3571
2023-01-15T05:13:55.304Z,64.4286
2023-01-15T05:14:55.301Z,64.5714
2023-01-15T05:15:55.354Z,64.5714
2023-01-15T05:16:55.366Z,64.5714
2023-01-15T05:17:55.391Z,64.5
2023-01-15T05:18:55.438Z,64.5
2023-01-15T05:19:55.483Z,64.5714
2023-01-15T05:20:55.506Z,64.5714
2023-01-15T05:21:55.543Z,64.6429
2023-01-15T05:22:55.572Z,64.7857
2023-01-15T05:23:55.604Z,64.8571
2023-01-15T05:24:55.677Z,64.7143
2023-01-15T05:25:55.692Z,64.7857
2023-01-15T05:26:55.722Z,64.7143
2023-01-15T05:27:55.746Z,64.5714
2023-01-15T05:28:55.785Z,64.7143
2023-01-15T05:29:55.839Z,64.7857
2023-01-15T05:30:55.915Z,64.7857
2023-01-15T05:31:55.925Z,64.7857
2023-01-15T05:32:55.935Z,64.7143
2023-01-15T05:33:55.997Z,64.7857
2023-01-15T05:34:56.014Z,64.9286
2023-01-15T05:35:56.042Z,65
2023-01-15T05:36:56.090Z,64.9286
2023-01-15T05:37:56.157Z,64.7857
2023-01-15T05:38:56.175Z,64.8571
2023-01-15T05:39:56.219Z,64.7857
2023-01-15T05:40:56.253Z,64.7143
2023-01-15T05:41:56.297Z,64.6429
2023-01-15T05:42:56.327Z,64.6429
2023-01-15T05:43:56.370Z,64.6429
2023-01-15T05:44:56.432Z,64.6429
2023-01-15T05:45:56.484Z,64.6429
2023-01-15T05:46:56.490Z,64.7857
2023-01-15T05:47:56.520Z,64.7857
2023-01-15T05:48:56.553Z,64.8571
2023-01-15T05:49:56.605Z,64.7857
2023-01-15T05:50:56.632Z,64.7857
2023-01-15T05:51:56.670Z,64.7143
2023-01-15T05:52:56.703Z,64.6429
2023-01-15T05:53:56.725Z,64.7143
2023-01-15T05:54:56.942Z,64.7857
2023-01-15T05:55:56.795Z,64.7857
2023-01-15T05:56:56.868Z,64.8571
2023-01-15T05:57:56.869Z,65
2023-01-15T05:58:56.898Z,65.0714
2023-01-15T05:59:56.944Z,65.2857
2023-01-15T06:00:57.010Z,65.3571
2023-01-15T06:01:57.009Z,65.5
2023-01-15T06:02:57.057Z,65.5
2023-01-15T06:03:57.140Z,65.4286
2023-01-15T06:04:57.123Z,65.3571
2023-01-15T06:05:57.165Z,65.4286
2023-01-15T06:06:57.197Z,65.5714
2023-01-15T06:07:57.239Z,65.6429
2023-01-15T06:08:57.271Z,65.6429
2023-01-15T06:09:57.319Z,65.5
2023-01-15T06:10:57.343Z,65.5
2023-01-15T06:11:57.380Z,65.5714
2023-01-15T06:12:57.415Z,65.5714
2023-01-15T06:13:57.449Z,65.5714
2023-01-15T06:14:57.496Z,65.5
2023-01-15T06:15:57.554Z,65.5
2023-01-15T06:16:57.576Z,65.5
2023-01-15T06:17:57.606Z,65.5
2023-01-15T06:18:57.645Z,65.5714
2023-01-15T06:19:57.705Z,65.5714
2023-01-15T06:20:57.725Z,65.5714
2023-01-15T06:21:57.778Z,65.6429
2023-01-15T06:22:57.801Z,65.6429
2023-01-15T06:23:57.831Z,65.6429
2023-01-15T06:24:57.864Z,65.6429
2023-01-15T06:25:57.895Z,65.7857
2023-01-15T06:26:57.947Z,65.8571
2023-01-15T06:27:57.965Z,65.7857
2023-01-15T06:28:57.986Z,65.7143
2023-01-15T06:29:58.025Z,65.5714
2023-01-15T06:30:58.062Z,65.6429
2023-01-15T06:31:58.106Z,65.6429
2023-01-15T06:32:58.129Z,65.5714
2023-01-15T06:33:58.165Z,65.6429
2023-01-15T06:34:58.238Z,65.7143
2023-01-15T06:35:58.247Z,65.6429
2023-01-15T06:36:58.280Z,65.5
2023-01-15T06:37:58.314Z,65.5
2023-01-15T06:38:58.343Z,65.4286
2023-01-15T06:39:58.410Z,65.2857
2023-01-15T06:40:58.433Z,65.3571
2023-01-15T06:41:58.486Z,65.2857
2023-01-15T06:42:58.517Z,65.2143
2023-01-15T06:43:58.539Z,65.1429
2023-01-15T06:44:58.547Z,65.1429
2023-01-15T06:45:58.582Z,65.2143
2023-01-15T06:46:58.638Z,65.2143
2023-01-15T06:47:58.658Z,65.2143
2023-01-15T06:48:58.712Z,65.1429
2023-01-15T06:49:58.818Z,65.2143
2023-01-15T06:50:58.761Z,65.2143
2023-01-15T06:51:58.801Z,65.2857
2023-01-15T06:52:58.835Z,65.4286
2023-01-15T06:53:58.878Z,65.4286
2023-01-15T06:54:58.918Z,65.5714
2023-01-15T06:55:58.944Z,65.5
2023-01-15T06:56:58.978Z,65.5714
2023-01-15T06:57:59.015Z,65.6429
2023-01-15T06:58:59.050Z,65.7143
2023-01-15T06:59:59.103Z,65.6429
2023-01-15T07:00:59.244Z,65.5714
2023-01-15T07:01:59.175Z,65.5714
2023-01-15T07:02:59.201Z,65.5714
2023-01-15T07:03:59.308Z,65.7143
2023-01-15T07:04:59.293Z,65.7143
2023-01-15T07:05:59.324Z,65.7143
2023-01-15T07:06:59.346Z,65.7143
2023-01-15T07:07:59.390Z,65.7143
2023-01-15T07:08:59.423Z,65.7143
2023-01-15T07:09:59.454Z,65.8571
2023-01-15T07:10:59.494Z,65.8571
2023-01-15T07:11:59.528Z,65.8571
2023-01-15T07:12:59.568Z,65.9286
2023-01-15T07:13:59.599Z,65.8571
2023-01-15T07:14:59.653Z,65.8571
2023-01-15T07:15:59.727Z,65.8571
2023-01-15T07:16:59.731Z,66
2023-01-15T07:17:59.751Z,66
2023-01-15T07:18:59.795Z,66.0714
2023-01-15T07:19:59.821Z,66.0714
2023-01-15T07:20:59.856Z,66
2023-01-15T07:21:59.900Z,66
2023-01-15T07:22:59.926Z,66.0714
2023-01-15T07:23:59.959Z,66
2023-01-15T07:24:59.995Z,66.0714
2023-01-15T07:26:00.036Z,66.0714
2023-01-15T07:27:00.098Z,66.0714
2023-01-15T07:28:00.139Z,66
2023-01-15T07:29:00.149Z,66
2023-01-15T07:30:00.175Z,65.9286
2023-01-15T07:31:00.219Z,66
2023-01-15T07:32:00.275Z,65.9286
2023-01-15T07:33:00.275Z,66
2023-01-15T07:34:00.320Z,66.0714
2023-01-15T07:35:00.350Z,66.0714
2023-01-15T07:36:00.384Z,66.0714
2023-01-15T07:37:00.417Z,66.0714
2023-01-15T07:38:00.463Z,66.0714
2023-01-15T07:39:00.506Z,66
2023-01-15T07:40:00.549Z,66
2023-01-15T07:41:00.581Z,66
2023-01-15T07:42:00.645Z,66
2023-01-15T07:43:00.649Z,66.0714
2023-01-15T07:44:00.681Z,66.1429
2023-01-15T07:45:00.702Z,66.1429
2023-01-15T07:46:00.814Z,66.2143
2023-01-15T07:47:00.783Z,66.2143
2023-01-15T07:48:00.813Z,66.1429
2023-01-15T07:49:00.873Z,66.1429
2023-01-15T07:50:00.892Z,66.0714
2023-01-15T07:51:00.928Z,66.0714
2023-01-15T07:52:00.969Z,66
2023-01-15T07:53:00.984Z,66.0714
2023-01-15T07:54:01.020Z,66.0714
2023-01-15T07:55:01.074Z,66.1429
2023-01-15T07:56:01.093Z,66.0714
2023-01-15T07:57:01.129Z,66.0714
2023-01-15T07:58:01.158Z,66.0714
2023-01-15T07:59:01.189Z,66
2023-01-15T08:00:01.221Z,66
2023-01-15T08:01:01.361Z,66
2023-01-15T08:02:01.413Z,66
2023-01-15T08:03:01.321Z,65.9286
2023-01-15T08:04:01.393Z,65.8571
2023-01-15T08:05:01.387Z,65.7857
2023-01-15T08:06:01.424Z,65.7857
2023-01-15T08:07:01.480Z,65.7143
2023-01-15T08:08:01.487Z,65.7143
2023-01-15T08:09:01.549Z,65.7143
2023-01-15T08:10:01.600Z,65.7143
2023-01-15T08:11:01.596Z,65.6429
2023-01-15T08:12:01.627Z,65.7143
2023-01-15T08:13:01.672Z,65.7143
2023-01-15T08:14:01.700Z,65.6429
2023-01-15T08:15:01.746Z,65.5714
2023-01-15T08:16:01.847Z,65.5
2023-01-15T08:17:01.803Z,65.5714
2023-01-15T08:18:01.855Z,65.5
2023-01-15T08:19:01.869Z,65.4286
2023-01-15T08:20:01.970Z,65.4286
2023-01-15T08:21:01.956Z,65.5
2023-01-15T08:22:01.980Z,65.5714
2023-01-15T08:23:02.020Z,65.4286
2023-01-15T08:24:02.051Z,65.3571
2023-01-15T08:25:02.095Z,65.3571
2023-01-15T08:26:02.129Z,65.2857
2023-01-15T08:27:02.162Z,65.2857
2023-01-15T08:28:02.207Z,65.2857
2023-01-15T08:29:02.232Z,65.2143
2023-01-15T08:30:02.272Z,65.1429
2023-01-15T08:31:02.308Z,65.0714
2023-01-15T08:32:03.384Z,65.1429
2023-01-15T08:33:02.363Z,65.1429
2023-01-15T08:34:02.386Z,65.1429
2023-01-15T08:35:02.417Z,65
2023-01-15T08:36:02.477Z,65.1429
2023-01-15T08:37:02.494Z,65.1429
2023-01-15T08:38:02.520Z,65.0714
2023-01-15T08:39:02.561Z,65.0714
2023-01-15T08:40:02.591Z,65.1429
2023-01-15T08:41:02.625Z,65.0714
2023-01-15T08:42:02.712Z,65
2023-01-15T08:43:02.692Z,64.9286
2023-01-15T08:44:02.727Z,64.8571
2023-01-15T08:45:02.776Z,64.7143
2023-01-15T08:46:02.850Z,64.6429
2023-01-15T08:47:02.832Z,64.7857
2023-01-15T08:48:02.880Z,64.6429
2023-01-15T08:49:02.905Z,64.5
2023-01-15T08:50:02.959Z,64.3571
2023-01-15T08:51:02.975Z,64.5
2023-01-15T08:52:02.997Z,64.3571
2023-01-15T08:53:03.044Z,64.0714
2023-01-15T08:54:03.070Z,64.1429
2023-01-15T08:55:03.114Z,64.2143
2023-01-15T08:56:03.133Z,64.2857
2023-01-15T08:57:03.178Z,64.1429
2023-01-15T08:58:03.211Z,63.9286
2023-01-15T08:59:03.248Z,63.8571
2023-01-15T09:00:03.279Z,63.6429
2023-01-15T09:01:03.380Z,63.7857
2023-01-15T09:02:03.516Z,63.8571
2023-01-15T09:03:03.381Z,64
2023-01-15T09:04:03.433Z,63.8571
2023-01-15T09:05:03.540Z,63.9286
2023-01-15T09:06:03.491Z,63.7857
2023-01-15T09:07:03.574Z,63.7143
2023-01-15T09:08:03.554Z,63.7857
2023-01-15T09:09:03.594Z,63.9286
2023-01-15T09:10:03.629Z,63.7143
2023-01-15T09:11:03.664Z,63.5
2023-01-15T09:12:03.706Z,63.3571
2023-01-15T09:13:03.741Z,63.1429
2023-01-15T09:14:03.784Z,63.2143
2023-01-15T09:15:03.854Z,63.4286
2023-01-15T09:16:03.868Z,63.4286
2023-01-15T09:17:03.884Z,63.3571
2023-01-15T09:18:03.917Z,63.2857
2023-01-15T09:19:03.975Z,63.3571
2023-01-15T09:20:04.000Z,63.3571
2023-01-15T09:21:04.054Z,63.2857
2023-01-15T09:22:04.098Z,63.1429
2023-01-15T09:23:04.110Z,63.1429
2023-01-15T09:24:04.147Z,63
2023-01-15T09:25:04.182Z,62.9286
2023-01-15T09:26:04.217Z,62.9286
2023-01-15T09:27:04.260Z,63.0714
2023-01-15T09:28:04.289Z,63.0714
2023-01-15T09:29:04.324Z,62.8571
2023-01-15T09:30:04.368Z,62.9286
2023-01-15T09:31:04.469Z,63
2023-01-15T09:32:04.434Z,62.9286
2023-01-15T09:33:04.469Z,62.9286
2023-01-15T09:34:04.492Z,63
2023-01-15T09:35:04.525Z,62.7857
2023-01-15T09:36:04.559Z,62.7857
2023-01-15T09:37:04.607Z,62.6429
2023-01-15T09:38:04.630Z,62.7143
2023-01-15T09:39:04.688Z,62.8571
2023-01-15T09:40:04.706Z,62.7857
2023-01-15T09:41:04.743Z,62.7857
2023-01-15T09:42:04.768Z,62.7857
2023-01-15T09:43:04.814Z,62.7857
2023-01-15T09:44:04.841Z,62.5714
2023-01-15T09:45:04.891Z,62.6429
2023-01-15T09:46:05.036Z,62.6429
2023-01-15T09:47:04.952Z,62.7143
2023-01-15T09:48:04.976Z,62.7857
2023-01-15T09:49:05.009Z,63.0714
2023-01-15T09:50:05.042Z,63
2023-01-15T09:51:05.067Z,62.8571
2023-01-15T09:52:05.096Z,62.5714
2023-01-15T09:53:05.130Z,62.5
2023-01-15T09:54:05.167Z,62.1429
2023-01-15T09:55:05.202Z,62.3571
2023-01-15T09:56:05.228Z,62.2857
2023-01-15T09:57:05.259Z,62.4286
2023-01-15T09:58:05.300Z,62.3571
2023-01-15T09:59:05.323Z,62.4286
2023-01-15T10:00:05.368Z,62.0714
2023-01-15T10:01:05.464Z,61.9286
2023-01-15T10:02:05.444Z,61.8571
2023-01-15T10:03:05.526Z,61.7857
2023-01-15T10:04:05.604Z,61.7143
2023-01-15T10:05:06.524Z,61.7857
2023-01-15T10:06:05.585Z,61.5
2023-01-15T10:07:05.619Z,61.6429
2023-01-15T10:08:05.646Z,61.7143
2023-01-15T10:09:05.689Z,61.4286
2023-01-15T10:10:05.728Z,61.4286
2023-01-15T10:11:05.759Z,61.5714
2023-01-15T10:12:05.799Z,61.5714
2023-01-15T10:13:05.824Z,61.5
2023-01-15T10:14:05.874Z,61.3571
2023-01-15T10:15:05.899Z,61.5
2023-01-15T10:16:06.009Z,61.2857
2023-01-15T10:17:05.968Z,61.1429
2023-01-15T10:18:06.004Z,60.9286
2023-01-15T10:19:06.036Z,60.5
2023-01-15T10:20:06.067Z,60.7143
2023-01-15T10:21:06.104Z,60.7857
2023-01-15T10:22:06.137Z,60.4286
2023-01-15T10:23:06.188Z,60.2857
2023-01-15T10:24:06.225Z,60.3571
2023-01-15T10:25:06.252Z,60.3571
2023-01-15T10:26:06.283Z,60.4286
2023-01-15T10:27:06.333Z,60.4286
2023-01-15T10:28:06.362Z,60.5
2023-01-15T10:29:06.410Z,60.3571
2023-01-15T10:30:06.435Z,60
2023-01-15T10:31:06.525Z,59.7143
2023-01-15T10:32:06.504Z,59.6429
2023-01-15T10:33:06.529Z,59.7143
2023-01-15T10:34:06.569Z,59.2857
2023-01-15T10:35:06.614Z,59.1429
2023-01-15T10:36:06.647Z,59
2023-01-15T10:37:06.689Z,59.2857
2023-01-15T10:38:06.731Z,59.2143
2023-01-15T10:39:06.754Z,59.1429
2023-01-15T10:40:06.787Z,59.2143
2023-01-15T10:41:06.816Z,59.1429
2023-01-15T10:42:06.851Z,58.9286
2023-01-15T10:43:06.883Z,58.4286
2023-01-15T10:44:06.913Z,58.0714
2023-01-15T10:45:06.945Z,58.1429
2023-01-15T10:46:07.033Z,58.2857
2023-01-15T10:47:07.030Z,57.9286
2023-01-15T10:48:07.062Z,57.3571
2023-01-15T10:49:07.092Z,57.5
2023-01-15T10:50:07.130Z,57.7857
2023-01-15T10:51:07.161Z,57.8571
2023-01-15T10:52:07.203Z,57.9286
2023-01-15T10:53:07.255Z,58
2023-01-15T10:54:07.261Z,57.8571
2023-01-15T10:55:07.314Z,57.7143
2023-01-15T10:56:07.329Z,57.8571
2023-01-15T10:57:07.361Z,57.9286
2023-01-15T10:58:10.891Z,57.5714
2023-01-15T10:59:07.441Z,57.2857
2023-01-15T11:00:07.473Z,57.5
2023-01-15T11:01:07.644Z,57.2143
2023-01-15T11:02:07.737Z,56.9286
2023-01-15T11:03:07.663Z,57.2143
2023-01-15T11:04:07.630Z,57.4286
2023-01-15T11:05:07.664Z,57.5714
2023-01-15T11:06:07.699Z,57.3571
2023-01-15T11:07:07.760Z,56.9286
2023-01-15T11:08:45.114Z,57.0714
2023-01-15T11:09:10.710Z,57.3571
2023-01-15T11:10:07.835Z,57.0714
2023-01-15T11:11:07.868Z,57
2023-01-15T11:12:07.899Z,57.1429
2023-01-15T11:13:07.928Z,57.2143
2023-01-15T11:14:07.966Z,57
2023-01-15T11:15:08.004Z,56.9286
2023-01-15T11:16:08.064Z,56.7857
2023-01-15T11:17:08.066Z,56.8571
2023-01-15T11:18:08.081Z,57.2143
2023-01-15T11:19:08.115Z,57
2023-01-15T11:20:08.148Z,56.7857
2023-01-15T11:21:08.177Z,56.9286
2023-01-15T11:22:08.211Z,57
2023-01-15T11:23:08.239Z,56.8571
2023-01-15T11:24:08.278Z,56.9286
2023-01-15T11:25:08.340Z,56.5
2023-01-15T11:26:08.348Z,56.5714
2023-01-15T11:27:08.376Z,56.8571
2023-01-15T11:28:08.425Z,57
2023-01-15T11:29:08.455Z,56.4286
2023-01-15T11:30:08.501Z,56.7143
2023-01-15T11:31:08.549Z,56.8571
2023-01-15T11:32:08.554Z,56.7143
2023-01-15T11:33:08.588Z,56.8571
2023-01-15T11:34:08.616Z,56.9286
2023-01-15T11:35:08.658Z,56.7143
2023-01-15T11:36:08.695Z,56.5714
2023-01-15T11:37:08.747Z,57
2023-01-15T11:38:08.763Z,56.8571
2023-01-15T11:39:08.796Z,56.5714
2023-01-15T11:40:08.841Z,56.8571
2023-01-15T11:41:08.866Z,57
2023-01-15T11:42:08.900Z,56.4286
2023-01-15T11:43:08.975Z,56.7143
2023-01-15T11:44:08.971Z,56.7143
2023-01-15T11:45:09.003Z,56.7857
2023-01-15T11:46:09.178Z,56.4286
2023-01-15T11:47:09.080Z,56.5
2023-01-15T11:48:09.138Z,56.3571
2023-01-15T11:49:09.143Z,56.5714
2023-01-15T11:50:09.191Z,56.7857
2023-01-15T11:51:09.215Z,56.7857
2023-01-15T11:52:09.247Z,56.7857
2023-01-15T11:53:09.275Z,56.6429
2023-01-15T11:54:09.317Z,56.7143
2023-01-15T11:55:09.351Z,56.8571
2023-01-15T11:56:09.415Z,57
2023-01-15T11:57:09.421Z,56.7857
2023-01-15T11:58:09.451Z,56.4286
2023-01-15T11:59:09.532Z,56.5
2023-01-15T12:00:09.534Z,56.3571
2023-01-15T12:01:09.641Z,56.2857
2023-01-15T12:02:09.589Z,56.2143
2023-01-15T12:03:09.623Z,56.3571
2023-01-15T12:04:09.757Z,56.2857
2023-01-15T12:05:09.695Z,56.6429
2023-01-15T12:06:09.743Z,56.5714
2023-01-15T12:07:09.778Z,56.6429
2023-01-15T12:08:09.807Z,56.7143
2023-01-15T12:09:09.838Z,56.5
2023-01-15T12:10:09.880Z,56.7143
2023-01-15T12:11:25.556Z,56.5
2023-01-15T12:12:09.935Z,56.3571
2023-01-15T12:13:09.976Z,56.0714
2023-01-15T12:14:10.023Z,56.2857
2023-01-15T12:15:10.052Z,56.3571
2023-01-15T12:16:10.172Z,56.5714
2023-01-15T12:17:10.136Z,56.4286
2023-01-15T12:18:10.171Z,56.5
2023-01-15T12:19:10.216Z,56.6429
2023-01-15T12:20:10.240Z,56.7143
2023-01-15T12:21:10.280Z,56.7857